Lapis Arrow — C6VH5 — position and weather

sailwx.info

Track history (hours):
 
Tides and Currents Weather Stations Pressure Air Temp Water Temp Dewpoint Dewpoint Depression Visibility Wind Speed Wind Dir Waves Ship Positions

Lapis Arrow

Last reported at 2017-Nov-19 20:57 UTC. Time now 2017-Nov-22 18:24 UTC.
Position N 42°49' E 006°30'.

Length 176 m; draft 7.3 m.

Type: Cargo ship. MMSI: 308800800.

Date/timePositionNaut miles runAvg speedWind from/ knotsBaromVisibWave heightAir tempDewpointWater temp
2017-Nov-19 20:57N 42°49' E 006°30'715.6
2017-Nov-19 20:30N 42°51' E 006°39'2815.3
2017-Nov-19 18:41N 42°56' E 007°17'6415.2
2017-Nov-19 14:27N 43°40' E 008°21'715.9
2017-Nov-19 14:00N 43°46' E 008°26'815.7
2017-Nov-19 13:30N 43°53' E 008°31'815.7
2017-Nov-19 13:00N 44°01' E 008°31'815.6
2017-Nov-19 12:30N 44°09' E 008°32'815.6
2017-Nov-19 12:00N 44°17' E 008°31'2 4.8
2017-Nov-19 11:30N 44°19' E 008°30'0 0.0
2017-Nov-19 11:00N 44°19' E 008°30'0 0.0
2017-Nov-19 10:30N 44°19' E 008°30'0 0.0
2017-Nov-19 10:00N 44°19' E 008°30'0 0.0
2017-Nov-19 08:59N 44°19' E 008°30'0 0.0
2017-Nov-19 08:28N 44°19' E 008°30'0 0.0
2017-Nov-19 08:00N 44°19' E 008°30'0 0.0
2017-Nov-19 07:30N 44°19' E 008°30'0 0.0
2017-Nov-19 07:00N 44°19' E 008°30'0 0.0
2017-Nov-19 06:30N 44°19' E 008°30'0 0.0
2017-Nov-19 06:00N 44°19' E 008°30'1 2.1
2017-Nov-19 05:30N 44°18' E 008°31'1 1.8
2017-Nov-19 05:00N 44°18' E 008°32'4 7.8
2017-Nov-19 04:30N 44°15' E 008°35'510.1
2017-Nov-19 04:00N 44°10' E 008°39'713.5
2017-Nov-19 03:31N 44°05' E 008°45'815.3
2017-Nov-19 03:01N 43°58' E 008°50'815.4
2017-Nov-19 02:31N 43°52' E 008°56'815.4
2017-Nov-19 02:01N 43°46' E 009°02'815.5
2017-Nov-19 01:31N 43°39' E 009°07'815.4
2017-Nov-19 01:01N 43°32' E 009°13'815.4
2017-Nov-19 00:31N 43°26' E 009°18'815.5
2017-Nov-19 00:01N 43°19' E 009°24'815.9
2017-Nov-18 23:31N 43°13' E 009°30'815.8
2017-Nov-18 23:01N 43°05' E 009°35'1715.6
2017-Nov-18 21:53N 42°51' E 009°48'220 8.3
2017-Nov-17 19:25N 40°36' E 013°40'819.3
2017-Nov-17 19:00N 40°33' E 013°50'1019.5
2017-Nov-17 18:30N 40°31' E 014°03'1519.0
2017-Nov-17 17:43N 40°31' E 014°23'49 2.9
2017-Nov-17 00:31N 39°48' E 014°56'117.2
2017-Nov-17 00:28N 39°48' E 014°57'1818.2
2017-Nov-16 23:30N 39°31' E 015°05'3419.2
2017-Nov-16 21:43N 38°59' E 015°22'419.0
2017-Nov-16 21:29N 38°55' E 015°24'1018.8
2017-Nov-16 20:58N 38°46' E 015°28'918.9
2017-Nov-16 20:30N 38°38' E 015°32'918.9
2017-Nov-16 20:00N 38°29' E 015°37'918.6
2017-Nov-16 19:30N 38°21' E 015°42'713.8
2017-Nov-16 19:00N 38°14' E 015°38'917.1
2017-Nov-16 18:30N 38°06' E 015°36'918.1
2017-Nov-16 18:01N 37°57' E 015°38'917.6
2017-Nov-16 17:30N 37°52' E 015°47'  
Track history (hours):
 
Tides and Currents Weather Stations Pressure Air Temp Water Temp Dewpoint Dewpoint Depression Visibility Wind Speed Wind Dir Waves Ship Positions

Lapis Arrow

Last reported at 2017-Nov-19 20:57 UTC. Time now 2017-Nov-22 18:24 UTC.
Position N 42°49' E 006°30'.

Length 176 m; draft 7.3 m.

Type: Cargo ship. MMSI: 308800800.

Date/timePositionNaut miles runAvg speedWind from/ knotsBaromVisibWave heightAir tempDewpointWater temp
2017-Nov-19 20:57N 42°49' E 006°30'715.6
2017-Nov-19 20:30N 42°51' E 006°39'2815.3
2017-Nov-19 18:41N 42°56' E 007°17'6415.2
2017-Nov-19 14:27N 43°40' E 008°21'715.9
2017-Nov-19 14:00N 43°46' E 008°26'815.7
2017-Nov-19 13:30N 43°53' E 008°31'815.7
2017-Nov-19 13:00N 44°01' E 008°31'815.6
2017-Nov-19 12:30N 44°09' E 008°32'815.6
2017-Nov-19 12:00N 44°17' E 008°31'2 4.8
2017-Nov-19 11:30N 44°19' E 008°30'0 0.0
2017-Nov-19 11:00N 44°19' E 008°30'0 0.0
2017-Nov-19 10:30N 44°19' E 008°30'0 0.0
2017-Nov-19 10:00N 44°19' E 008°30'0 0.0
2017-Nov-19 08:59N 44°19' E 008°30'0 0.0
2017-Nov-19 08:28N 44°19' E 008°30'0 0.0
2017-Nov-19 08:00N 44°19' E 008°30'0 0.0
2017-Nov-19 07:30N 44°19' E 008°30'0 0.0
2017-Nov-19 07:00N 44°19' E 008°30'0 0.0
2017-Nov-19 06:30N 44°19' E 008°30'0 0.0
2017-Nov-19 06:00N 44°19' E 008°30'1 2.1
2017-Nov-19 05:30N 44°18' E 008°31'1 1.8
2017-Nov-19 05:00N 44°18' E 008°32'4 7.8
2017-Nov-19 04:30N 44°15' E 008°35'510.1
2017-Nov-19 04:00N 44°10' E 008°39'713.5
2017-Nov-19 03:31N 44°05' E 008°45'815.3
2017-Nov-19 03:01N 43°58' E 008°50'815.4
2017-Nov-19 02:31N 43°52' E 008°56'815.4
2017-Nov-19 02:01N 43°46' E 009°02'815.5
2017-Nov-19 01:31N 43°39' E 009°07'815.4
2017-Nov-19 01:01N 43°32' E 009°13'815.4
2017-Nov-19 00:31N 43°26' E 009°18'815.5
2017-Nov-19 00:01N 43°19' E 009°24'815.9
2017-Nov-18 23:31N 43°13' E 009°30'815.8
2017-Nov-18 23:01N 43°05' E 009°35'1715.6
2017-Nov-18 21:53N 42°51' E 009°48'220 8.3
2017-Nov-17 19:25N 40°36' E 013°40'819.3
2017-Nov-17 19:00N 40°33' E 013°50'1019.5
2017-Nov-17 18:30N 40°31' E 014°03'1519.0
2017-Nov-17 17:43N 40°31' E 014°23'49 2.9
2017-Nov-17 00:31N 39°48' E 014°56'117.2
2017-Nov-17 00:28N 39°48' E 014°57'1818.2
2017-Nov-16 23:30N 39°31' E 015°05'3419.2
2017-Nov-16 21:43N 38°59' E 015°22'419.0
2017-Nov-16 21:29N 38°55' E 015°24'1018.8
2017-Nov-16 20:58N 38°46' E 015°28'918.9
2017-Nov-16 20:30N 38°38' E 015°32'918.9
2017-Nov-16 20:00N 38°29' E 015°37'918.6
2017-Nov-16 19:30N 38°21' E 015°42'713.8
2017-Nov-16 19:00N 38°14' E 015°38'917.1
2017-Nov-16 18:30N 38°06' E 015°36'918.1
2017-Nov-16 18:01N 37°57' E 015°38'917.6
2017-Nov-16 17:30N 37°52' E 015°47'  

Dump ship's entire track history